Time;durP1;ratioP1;P1;durP2;ratioP2;P2;SDS_P1;SDS_P2;PMS_P1;PMS_P2;Temp;Humidity;BMP_temperature;BMP_pressure;BME280_temperature;BME280_humidity;BME280_pressure;Samples;Min_cycle;Max_cycle;Signal;HPM_P1;HPM_P2
2021/01/26 00:01:51;;;;;;;12.48;3.55;;;;;;;3.97;85.02;101121.91;5031959;28;20395;-79
2021/01/26 00:04:16;;;;;;;16.63;4.50;;;;;;;3.98;85.12;101132.16;5032597;28;20017;-81
2021/01/26 00:06:43;;;;;;;17.70;3.90;;;;;;;3.98;85.38;101139.78;5033430;28;20060;-81
2021/01/26 00:09:08;;;;;;;12.37;3.43;;;;;;;3.97;85.97;101135.50;5032026;28;20307;-79
2021/01/26 00:11:33;;;;;;;23.30;4.30;;;;;;;3.94;85.93;101139.53;5033627;28;20057;-81
2021/01/26 00:13:58;;;;;;;18.13;5.00;;;;;;;3.90;86.08;101137.59;5035705;28;20272;-80
2021/01/26 00:16:24;;;;;;;15.87;3.43;;;;;;;3.90;86.17;101140.13;5036612;28;20502;-80
2021/01/26 00:18:49;;;;;;;19.57;5.27;;;;;;;3.89;86.45;101135.84;5036955;28;20079;-79
2021/01/26 00:21:14;;;;;;;14.23;3.03;;;;;;;3.94;86.25;101140.41;5036403;28;20025;-80
2021/01/26 00:23:40;;;;;;;17.67;5.27;;;;;;;3.91;86.60;101139.38;5035661;28;20653;-80
2021/01/26 00:26:05;;;;;;;24.63;3.75;;;;;;;3.85;87.31;101149.16;5037520;28;20029;-79
2021/01/26 00:28:30;;;;;;;17.27;4.00;;;;;;;3.85;87.73;101156.78;5036380;28;20025;-78
2021/01/26 00:30:55;;;;;;;20.97;3.93;;;;;;;3.83;87.70;101146.53;5035670;28;20154;-78
2021/01/26 00:33:23;;;;;;;24.77;3.87;;;;;;;3.88;87.39;101140.06;5037698;28;20270;-80
2021/01/26 00:35:49;;;;;;;14.27;2.77;;;;;;;3.90;86.99;101148.66;5036262;28;20052;-80
2021/01/26 00:38:15;;;;;;;17.17;3.92;;;;;;;3.94;86.29;101148.03;5034901;28;20022;-81
2021/01/26 00:40:40;;;;;;;29.70;3.33;;;;;;;3.96;86.84;101150.66;5037068;28;20025;-79
2021/01/26 00:43:07;;;;;;;18.80;3.42;;;;;;;3.96;87.00;101158.28;5035793;28;20108;-78
2021/01/26 00:45:33;;;;;;;21.90;4.10;;;;;;;3.98;87.04;101156.69;5037033;28;20501;-78
2021/01/26 00:47:58;;;;;;;28.15;3.90;;;;;;;3.97;87.22;101130.41;5036033;28;20029;-81
2021/01/26 00:50:24;;;;;;;22.40;3.53;;;;;;;3.98;86.40;101138.91;5036516;28;20476;-81
2021/01/26 00:52:50;;;;;;;18.30;3.75;;;;;;;3.99;86.40;101154.25;5035243;28;20029;-79
2021/01/26 00:55:18;;;;;;;18.60;4.20;;;;;;;4.00;86.25;101163.63;5034762;28;20033;-79
2021/01/26 00:57:44;;;;;;;17.93;4.10;;;;;;;4.04;85.85;101152.81;5035083;28;20448;-82
2021/01/26 01:00:16;;;;;;;26.35;3.88;;;;;;;4.04;85.45;101159.56;5035252;28;20026;-80
2021/01/26 01:02:41;;;;;;;18.93;3.43;;;;;;;4.03;85.65;101155.28;5035982;28;20025;-80
2021/01/26 01:05:08;;;;;;;12.73;2.53;;;;;;;4.03;85.32;101170.53;5034842;28;20080;-80
2021/01/26 01:07:33;;;;;;;19.70;3.10;;;;;;;4.04;86.34;101174.81;5037349;28;20268;-78
2021/01/26 01:09:58;;;;;;;13.17;3.30;;;;;;;3.95;86.80;101182.81;5035307;28;20471;-78
2021/01/26 01:12:23;;;;;;;18.23;3.23;;;;;;;3.89;87.79;101197.72;5036011;28;20342;-78
2021/01/26 01:14:49;;;;;;;18.27;3.03;;;;;;;3.63;88.87;101208.09;5035588;28;20269;-80
2021/01/26 01:17:14;;;;;;;12.43;2.13;;;;;;;3.39;88.91;101198.25;5035679;28;20036;-82
2021/01/26 01:19:39;;;;;;;5.18;1.50;;;;;;;3.34;88.60;101211.47;5034796;28;20520;-80
2021/01/26 01:22:04;;;;;;;14.50;1.70;;;;;;;3.32;88.92;101202.91;5034368;28;20036;-79
2021/01/26 01:24:30;;;;;;;9.57;2.03;;;;;;;3.35;88.46;101203.94;5034106;28;20330;-82
2021/01/26 01:26:55;;;;;;;11.47;2.30;;;;;;;3.41;88.73;101221.19;5034653;28;20048;-80
2021/01/26 01:29:20;;;;;;;6.63;2.13;;;;;;;3.46;88.88;101218.94;5035750;28;20329;-80
2021/01/26 01:31:46;;;;;;;15.17;2.60;;;;;;;3.48;88.68;101220.75;5035604;28;20029;-82
2021/01/26 01:34:11;;;;;;;16.10;2.23;;;;;;;3.45;88.85;101223.13;5034792;28;20279;-80
2021/01/26 01:36:37;;;;;;;17.35;3.08;;;;;;;3.53;88.24;101226.09;5033700;28;20060;-81
2021/01/26 01:39:05;;;;;;;17.10;3.20;;;;;;;3.50;88.31;101228.47;5035361;28;20133;-79
2021/01/26 01:41:32;;;;;;;13.80;2.53;;;;;;;3.51;88.79;101223.47;5034101;28;20104;-79
2021/01/26 01:43:58;;;;;;;14.70;3.17;;;;;;;3.50;88.55;101229.34;5035272;28;20021;-80
2021/01/26 01:46:24;;;;;;;18.38;2.50;;;;;;;3.56;87.95;101229.69;5035698;28;20033;-80
2021/01/26 01:48:53;;;;;;;12.20;3.07;;;;;;;3.58;87.52;101227.28;5033647;28;20031;-81
2021/01/26 01:51:22;;;;;;;19.27;2.80;;;;;;;3.60;86.96;101229.13;5033322;28;20399;-81
2021/01/26 01:53:54;;;;;;;21.57;3.13;;;;;;;3.64;86.88;101231.03;5034036;28;20026;-81
2021/01/26 01:56:35;;;;;;;11.17;2.13;;;;;;;3.58;86.80;101233.22;5035597;28;20040;-79
2021/01/26 01:59:08;;;;;;;11.87;2.10;;;;;;;3.57;87.28;101238.19;5035296;28;20116;-79
2021/01/26 02:01:34;;;;;;;15.53;2.63;;;;;;;3.61;87.55;101243.56;5033796;28;20085;-78
2021/01/26 02:04:08;;;;;;;10.10;2.17;;;;;;;3.69;87.02;101239.78;5035261;28;20116;-80
2021/01/26 02:06:36;;;;;;;21.30;2.60;;;;;;;3.69;87.28;101249.97;5034809;28;20030;-79
2021/01/26 02:09:15;;;;;;;22.20;3.53;;;;;;;3.68;87.49;101258.38;5034958;28;20411;-79
2021/01/26 02:11:41;;;;;;;22.53;3.20;;;;;;;3.65;87.50;101255.66;5035368;28;20103;-80
2021/01/26 02:14:07;;;;;;;16.38;2.95;;;;;;;3.65;87.06;101254.78;5033088;28;20025;-80
2021/01/26 02:16:47;;;;;;;16.70;3.00;;;;;;;3.59;87.30;101252.75;5035495;28;20558;-82
2021/01/26 02:19:50;;;;;;;24.67;3.40;;;;;;;3.64;87.22;101266.59;5033834;28;20037;-79
2021/01/26 02:22:34;;;;;;;16.93;3.37;;;;;;;3.73;87.35;101261.16;5034814;28;20040;-79
2021/01/26 02:25:11;;;;;;;24.77;3.20;;;;;;;3.77;86.99;101267.31;5033683;28;20116;-80
2021/01/26 02:27:59;;;;;;;16.70;3.03;;;;;;;3.83;87.17;101272.72;5033581;28;20164;-78
2021/01/26 02:30:41;;;;;;;13.97;2.47;;;;;;;3.89;86.38;101266.31;5034151;28;20033;-82
2021/01/26 02:33:25;;;;;;;16.60;2.80;;;;;;;3.93;86.58;101273.38;5033252;28;20021;-80
2021/01/26 02:36:09;;;;;;;19.80;3.57;;;;;;;3.97;86.26;101269.31;5031813;28;20025;-78
2021/01/26 02:39:06;;;;;;;21.53;3.13;;;;;;;4.01;86.69;101274.66;5033520;28;20041;-79
2021/01/26 02:41:42;;;;;;;13.73;2.83;;;;;;;3.96;87.41;101290.44;5032489;28;20037;-78
2021/01/26 02:44:31;;;;;;;11.38;3.10;;;;;;;3.95;86.69;101287.03;5032523;28;20109;-80
2021/01/26 02:47:21;;;;;;;18.27;3.00;;;;;;;3.99;86.77;101285.53;5033792;28;20033;-81
2021/01/26 02:50:02;;;;;;;15.13;2.80;;;;;;;4.00;85.79;101282.22;5032523;28;20450;-79
2021/01/26 02:52:48;;;;;;;18.13;2.20;;;;;;;3.91;86.39;101274.06;5033482;28;20502;-81
2021/01/26 02:55:25;;;;;;;14.57;2.10;;;;;;;3.88;85.40;101304.34;5032342;28;20499;-78
2021/01/26 02:57:56;;;;;;;7.43;2.00;;;;;;;3.79;85.42;101298.75;5031747;28;20036;-80
2021/01/26 03:00:28;;;;;;;15.17;2.10;;;;;;;3.72;85.50;101308.56;5032277;28;20057;-77
2021/01/26 03:02:58;;;;;;;5.93;1.47;;;;;;;3.67;85.35;101296.38;5032547;28;20108;-80
2021/01/26 03:05:28;;;;;;;11.27;2.13;;;;;;;3.65;85.85;101316.63;5033129;28;20430;-79
2021/01/26 03:08:01;;;;;;;11.20;1.80;;;;;;;3.62;86.10;101334.22;5031895;28;20030;-77
2021/01/26 03:10:35;;;;;;;11.67;2.47;;;;;;;3.57;86.14;101325.44;5032813;28;20029;-77
2021/01/26 03:13:04;;;;;;;9.93;1.83;;;;;;;3.61;86.13;101321.44;5032456;28;20022;-78
2021/01/26 03:15:36;;;;;;;9.60;2.20;;;;;;;3.59;86.70;101331.50;5032035;28;20499;-78
2021/01/26 03:18:09;;;;;;;9.87;1.93;;;;;;;3.57;86.83;101327.09;5030717;28;20025;-78
2021/01/26 03:20:46;;;;;;;14.23;2.73;;;;;;;3.55;86.79;101327.00;5031558;28;20029;-79
2021/01/26 03:23:21;;;;;;;13.90;2.47;;;;;;;3.51;86.93;101330.16;5033211;28;20380;-81
2021/01/26 03:25:51;;;;;;;17.60;2.77;;;;;;;3.54;87.33;101324.38;5031370;28;20029;-80
2021/01/26 03:28:19;;;;;;;13.47;2.50;;;;;;;3.58;87.04;101327.22;5031676;28;20030;-79
2021/01/26 03:30:48;;;;;;;19.13;3.60;;;;;;;3.66;86.74;101333.63;5031525;28;20025;-77
2021/01/26 03:33:32;;;;;;;14.23;2.30;;;;;;;3.70;86.91;101343.16;5032461;28;20036;-80
2021/01/26 03:35:58;;;;;;;23.53;2.97;;;;;;;3.73;87.04;101345.00;5032379;28;20029;-77
2021/01/26 03:38:27;;;;;;;21.63;3.00;;;;;;;3.77;87.42;101361.31;5032055;28;20041;-78
2021/01/26 03:40:53;;;;;;;19.27;3.90;;;;;;;3.75;88.19;101368.84;5032719;28;20039;-79
2021/01/26 03:43:20;;;;;;;14.40;3.00;;;;;;;3.69;88.78;101361.75;5030872;28;20044;-81
2021/01/26 03:45:52;;;;;;;16.40;2.97;;;;;;;3.62;88.56;101346.06;5031962;28;20495;-81
2021/01/26 03:48:29;;;;;;;23.47;4.23;;;;;;;3.57;89.15;101367.75;5030432;28;20060;-80
2021/01/26 03:51:09;;;;;;;25.20;4.03;;;;;;;3.58;89.42;101372.94;5030633;28;20056;-80
2021/01/26 03:54:02;;;;;;;13.17;3.07;;;;;;;3.53;89.40;101365.81;5030754;28;20017;-79
2021/01/26 03:56:48;;;;;;;13.03;2.47;;;;;;;3.50;88.98;101366.50;5030571;28;20037;-80
2021/01/26 03:59:28;;;;;;;15.00;2.97;;;;;;;3.46;89.04;101364.56;5030151;28;20042;-80
2021/01/26 04:02:03;;;;;;;15.30;3.20;;;;;;;3.51;89.11;101378.41;5030677;28;20028;-80
2021/01/26 04:04:40;;;;;;;20.80;3.43;;;;;;;3.52;89.75;101381.81;5031079;28;20032;-79
2021/01/26 04:07:16;;;;;;;20.40;3.70;;;;;;;3.64;89.64;101374.97;5031029;28;20052;-79
2021/01/26 04:09:54;;;;;;;16.58;3.60;;;;;;;3.72;89.24;101382.25;5029771;28;20021;-79
2021/01/26 04:12:26;;;;;;;23.60;4.03;;;;;;;3.75;88.96;101376.47;5031001;28;20036;-79
2021/01/26 04:14:55;;;;;;;22.17;2.80;;;;;;;3.76;89.38;101378.22;5039580;23;20411;-79
2021/01/26 04:17:26;;;;;;;10.57;2.13;;;;;;;3.73;88.59;101368.75;4994912;28;20034;-80
2021/01/26 04:20:03;;;;;;;20.43;3.40;;;;;;;3.70;89.03;101388.91;4992162;28;20049;-79
2021/01/26 04:22:29;;;;;;;17.47;2.87;;;;;;;3.71;89.06;101393.19;4992938;28;20484;-78
2021/01/26 04:24:54;;;;;;;19.35;2.85;;;;;;;3.70;89.13;101393.09;4993593;28;20042;-79
2021/01/26 04:27:23;;;;;;;21.77;3.33;;;;;;;3.70;89.35;101396.53;4994146;28;20038;-78
2021/01/26 04:29:49;;;;;;;25.33;3.67;;;;;;;3.70;89.58;101404.16;4981941;28;20025;-78
2021/01/26 04:32:20;;;;;;;22.67;3.25;;;;;;;3.77;89.35;101412.13;4994246;28;20026;-77
2021/01/26 04:34:45;;;;;;;14.13;3.43;;;;;;;3.82;89.08;101409.06;4995252;28;20030;-77
2021/01/26 04:37:11;;;;;;;18.92;3.67;;;;;;;3.81;88.74;101411.53;4993078;28;20026;-78
2021/01/26 04:39:36;;;;;;;19.70;3.53;;;;;;;3.76;88.80;101403.63;4994193;28;20080;-78
2021/01/26 04:42:08;;;;;;;17.35;2.97;;;;;;;3.82;88.12;101405.66;4993361;28;20034;-78
2021/01/26 04:44:54;;;;;;;21.63;3.30;;;;;;;3.85;88.02;101403.28;4992436;28;20039;-76
2021/01/26 04:47:38;;;;;;;12.20;2.97;;;;;;;3.88;88.09;101409.44;4992142;28;20019;-77
2021/01/26 04:50:15;;;;;;;13.83;3.17;;;;;;;3.91;88.32;101413.84;4973110;28;20093;-78
2021/01/26 04:52:59;;;;;;;;;;;;;;;3.93;88.39;101422.44;4975372;28;20023;-78
2021/01/26 04:55:46;;;;;;;21.70;4.17;;;;;;;3.89;88.94;101454.41;4990639;28;19921;-78
2021/01/26 04:58:35;;;;;;;18.95;2.92;;;;;;;3.84;89.21;101471.03;4975773;28;20481;-79
2021/01/26 05:01:09;;;;;;;10.20;2.50;;;;;;;3.66;88.48;101454.69;4979035;28;20047;-78
2021/01/26 05:04:05;;;;;;;12.77;1.90;;;;;;;3.55;87.13;101455.66;4985813;28;20026;-78
2021/01/26 05:06:36;;;;;;;9.70;1.20;;;;;;;3.37;86.65;101470.66;4976646;28;20124;-78
2021/01/26 05:09:05;;;;;;;4.10;1.00;;;;;;;3.28;87.69;101473.53;4976819;28;20031;-77
2021/01/26 05:11:35;;;;;;;10.07;1.70;;;;;;;3.17;87.60;101459.25;4989657;28;20050;-79
2021/01/26 05:14:07;;;;;;;5.00;0.83;;;;;;;3.17;87.75;101471.06;4978246;28;20110;-78
2021/01/26 05:16:39;;;;;;;4.87;1.00;;;;;;;3.19;88.42;101462.75;4985642;28;20477;-78
2021/01/26 05:19:18;;;;;;;9.80;1.30;;;;;;;3.26;88.81;101462.38;4991325;28;20061;-78
2021/01/26 05:22:08;;;;;;;7.47;1.53;;;;;;;3.35;89.00;101469.69;4985676;28;20023;-78
2021/01/26 05:24:36;;;;;;;7.37;1.83;;;;;;;3.38;89.63;101469.88;4985540;28;20400;-78
2021/01/26 05:27:02;;;;;;;14.70;2.20;;;;;;;3.37;90.03;101469.00;4996801;28;20042;-79
2021/01/26 05:29:29;;;;;;;14.23;2.10;;;;;;;3.42;90.01;101476.91;4991185;28;20034;-78
2021/01/26 05:31:59;;;;;;;25.30;2.77;;;;;;;3.44;89.78;101480.41;4996360;28;20069;-78
2021/01/26 05:34:28;;;;;;;12.33;2.13;;;;;;;3.42;89.96;101487.06;4984773;28;20112;-77
2021/01/26 05:36:53;;;;;;;11.60;2.73;;;;;;;3.39;89.73;101477.59;4996790;28;20396;-78
2021/01/26 05:39:51;;;;;;;11.80;2.43;;;;;;;3.40;89.44;101473.41;4981933;28;20026;-78
2021/01/26 05:42:18;;;;;;;22.23;2.67;;;;;;;3.35;89.88;101477.31;4957643;28;20262;-78
2021/01/26 05:44:51;;;;;;;12.83;2.87;;;;;;;3.39;89.58;101481.81;4988836;28;20489;-78
2021/01/26 05:47:21;;;;;;;12.90;2.50;;;;;;;3.41;89.83;101491.25;4996435;28;20089;-77
2021/01/26 05:49:46;;;;;;;12.67;2.50;;;;;;;3.47;89.74;101500.03;4980795;28;20027;-77
2021/01/26 05:52:12;;;;;;;15.40;3.03;;;;;;;3.50;89.83;101500.22;4983646;28;20097;-78
2021/01/26 05:54:45;;;;;;;18.90;3.53;;;;;;;3.55;90.04;101524.25;4996276;28;20023;-78
2021/01/26 05:57:11;;;;;;;13.73;3.33;;;;;;;3.53;90.41;101519.09;4983419;28;20102;-78
2021/01/26 05:59:37;;;;;;;10.38;1.70;;;;;;;3.44;89.53;101516.84;4987168;28;20065;-79
2021/01/26 06:02:15;;;;;;;14.85;2.33;;;;;;;3.40;90.25;101514.03;4991283;28;20022;-78
2021/01/26 06:04:41;;;;;;;4.87;1.13;;;;;;;3.32;89.94;101522.84;4986704;28;20030;-79
2021/01/26 06:07:17;;;;;;;5.90;1.23;;;;;;;3.24;89.45;101532.47;4987855;28;20042;-79
2021/01/26 06:09:43;;;;;;;6.57;1.13;;;;;;;3.24;89.65;101531.59;4991476;28;20052;-80
2021/01/26 06:12:08;;;;;;;7.57;1.10;;;;;;;3.24;89.94;101539.22;4995670;28;20026;-78
2021/01/26 06:14:34;;;;;;;13.87;1.73;;;;;;;3.20;90.50;101534.72;4981100;28;20034;-78
2021/01/26 06:17:23;;;;;;;8.10;1.10;;;;;;;3.19;90.31;101538.03;4990875;28;20273;-77
2021/01/26 06:20:13;;;;;;;4.63;1.23;;;;;;;3.11;90.42;101535.91;4976667;28;20023;-78
2021/01/26 06:22:38;;;;;;;5.93;0.93;;;;;;;3.10;90.11;101531.59;4986034;28;20026;-77
2021/01/26 06:25:11;;;;;;;8.13;0.80;;;;;;;3.10;90.15;101531.59;4992218;28;20113;-79
2021/01/26 06:27:52;;;;;;;9.90;1.10;;;;;;;3.13;89.87;101536.88;4977755;28;20282;-79
2021/01/26 06:30:33;;;;;;;8.63;0.80;;;;;;;3.19;89.56;101540.59;4992384;28;20119;-77
2021/01/26 06:33:30;;;;;;;9.20;1.20;;;;;;;3.25;89.67;101553.66;4975852;28;20041;-79
2021/01/26 06:36:17;;;;;;;11.02;0.85;;;;;;;3.23;89.43;101553.56;4977708;28;20034;-78
2021/01/26 06:39:01;;;;;;;6.53;1.30;;;;;;;3.18;89.26;101528.66;4979120;28;20034;-81
2021/01/26 06:41:41;;;;;;;13.33;0.90;;;;;;;3.10;88.68;101558.66;4983109;28;20254;-80
2021/01/26 06:44:17;;;;;;;3.37;0.60;;;;;;;3.02;88.18;101557.28;4999524;28;20503;-79
2021/01/26 06:47:14;;;;;;;5.83;1.00;;;;;;;2.93;88.44;101557.56;4986554;28;20023;-79
2021/01/26 06:49:49;;;;;;;3.97;0.70;;;;;;;2.88;88.20;101571.56;4980290;28;20038;-81
2021/01/26 06:52:29;;;;;;;13.43;1.53;;;;;;;2.83;88.87;101575.47;4983880;28;20466;-79
2021/01/26 06:55:22;;;;;;;6.73;0.80;;;;;;;2.82;88.43;101576.25;4983692;28;20038;-79
2021/01/26 06:58:06;;;;;;;4.37;0.80;;;;;;;2.77;88.68;101572.53;4993755;28;20113;-78
2021/01/26 07:00:43;;;;;;;4.63;0.77;;;;;;;2.79;88.80;101588.75;4984407;28;20291;-80
2021/01/26 07:03:37;;;;;;;3.87;0.80;;;;;;;2.76;88.68;101588.53;4977029;28;20448;-79
2021/01/26 07:06:27;;;;;;;8.53;0.87;;;;;;;2.74;89.17;101603.66;4999653;28;20050;-80
2021/01/26 07:09:21;;;;;;;6.43;0.73;;;;;;;2.69;89.02;101609.22;4989210;28;20030;-79
2021/01/26 07:12:06;;;;;;;10.40;1.03;;;;;;;2.72;89.00;101609.41;4986283;28;20396;-77
2021/01/26 07:15:09;;;;;;;7.73;0.87;;;;;;;2.78;89.26;101610.69;4991336;28;20034;-78
2021/01/26 07:17:52;;;;;;;6.57;1.33;;;;;;;2.87;88.51;101615.50;4991153;28;20056;-78
2021/01/26 07:20:33;;;;;;;11.30;1.20;;;;;;;2.91;89.05;101629.25;4991449;28;20085;-78
2021/01/26 07:23:08;;;;;;;6.23;1.20;;;;;;;2.96;88.81;101638.09;4991381;28;20057;-79
2021/01/26 07:25:56;;;;;;;8.40;1.00;;;;;;;3.02;88.74;101638.50;4984774;28;20045;-78
2021/01/26 07:28:43;;;;;;;9.17;1.60;;;;;;;3.08;88.98;101644.84;4997191;28;20033;-79
2021/01/26 07:31:19;;;;;;;4.18;0.70;;;;;;;3.09;89.24;101643.19;4999093;28;20022;-80
2021/01/26 07:33:50;;;;;;;9.20;1.35;;;;;;;3.11;89.24;101654.31;4998714;28;20219;-78
2021/01/26 07:36:28;;;;;;;5.37;0.90;;;;;;;3.11;89.40;101649.25;4985643;28;20034;-79
2021/01/26 07:39:20;;;;;;;11.77;1.30;;;;;;;3.07;89.71;101665.94;4985529;28;20938;-79
2021/01/26 07:42:02;;;;;;;7.57;2.67;;;;;;;3.05;89.62;101670.03;4969291;28;20038;-80
2021/01/26 07:44:46;;;;;;;5.50;1.10;;;;;;;3.00;89.95;101673.03;4992308;28;20034;-80
2021/01/26 07:47:27;;;;;;;10.47;1.27;;;;;;;2.98;90.30;101665.34;4995695;28;20023;-80
2021/01/26 07:49:58;;;;;;;9.47;2.60;;;;;;;3.00;90.42;101673.03;4991429;28;20054;-82
2021/01/26 07:52:27;;;;;;;9.90;1.40;;;;;;;2.99;90.57;101678.91;4990943;28;20035;-81
2021/01/26 07:55:01;;;;;;;9.77;1.30;;;;;;;3.05;90.85;101674.22;4987996;28;20385;-81
2021/01/26 07:57:35;;;;;;;8.90;3.03;;;;;;;3.10;90.40;101685.56;4988039;28;20038;-83
2021/01/26 08:00:01;;;;;;;6.80;1.97;;;;;;;3.09;90.71;101687.22;4981256;28;20034;-80
2021/01/26 08:02:34;;;;;;;10.40;1.50;;;;;;;3.17;90.72;101686.84;4987203;28;20026;-81
2021/01/26 08:05:08;;;;;;;12.03;1.90;;;;;;;3.24;90.71;101694.09;4987539;28;20444;-82
2021/01/26 08:07:33;;;;;;;12.90;2.33;;;;;;;3.32;90.03;101695.50;4991610;28;20053;-82
2021/01/26 08:10:02;;;;;;;7.15;1.50;;;;;;;3.38;90.07;101695.91;4985989;28;20030;-79
2021/01/26 08:12:30;;;;;;;7.93;1.53;;;;;;;3.49;90.10;101694.94;4986495;28;20030;-81
2021/01/26 08:15:16;;;;;;;15.27;1.70;;;;;;;3.59;89.63;101697.31;4982699;28;20033;-82
2021/01/26 08:17:42;;;;;;;4.07;1.20;;;;;;;3.60;89.28;101705.81;4985965;28;20047;-81
2021/01/26 08:20:14;;;;;;;;;;;;;;;3.60;89.22;101706.69;4986803;28;20050;-82
2021/01/26 08:22:42;;;;;;;12.60;1.70;;;;;;;3.58;88.74;101713.34;4984774;28;19969;-85
2021/01/26 08:25:12;;;;;;;7.97;1.00;;;;;;;3.62;88.76;101715.31;4985611;28;20550;-80
2021/01/26 08:27:37;;;;;;;8.93;1.30;;;;;;;3.60;88.46;101718.53;4983876;28;20584;-83
2021/01/26 08:30:09;;;;;;;8.57;1.47;;;;;;;3.55;88.14;101713.13;4982195;28;20026;-82
2021/01/26 08:32:34;;;;;;;7.70;1.00;;;;;;;3.52;87.83;101715.44;4983994;28;20484;-80
2021/01/26 08:35:07;;;;;;;7.80;1.30;;;;;;;3.55;87.80;101723.28;4988600;28;20026;-81
2021/01/26 08:37:41;;;;;;;7.63;1.37;;;;;;;3.53;88.00;101731.56;4990751;28;20494;-81
2021/01/26 08:40:09;;;;;;;4.47;1.50;;;;;;;3.54;87.85;101738.41;4992528;28;20030;-81
2021/01/26 08:42:41;;;;;;;5.13;1.20;;;;;;;3.55;88.49;101741.06;4988307;28;20070;-81
2021/01/26 08:45:14;;;;;;;6.17;1.70;;;;;;;3.52;88.67;101748.47;4991295;28;20061;-80
2021/01/26 08:47:42;;;;;;;7.17;1.80;;;;;;;3.57;88.43;101749.66;4986728;28;20081;-81
2021/01/26 08:50:27;;;;;;;8.33;1.50;;;;;;;3.66;88.38;101751.94;4988183;28;20030;-83
2021/01/26 08:52:56;;;;;;;7.57;1.50;;;;;;;3.68;88.07;101761.44;4989902;28;20030;-80
2021/01/26 08:55:42;;;;;;;7.83;1.83;;;;;;;3.67;88.32;101777.44;4990740;28;20038;-81
2021/01/26 08:58:12;;;;;;;8.38;1.52;;;;;;;3.61;88.74;101776.16;4988045;28;20030;-81
2021/01/26 09:00:43;;;;;;;9.80;1.97;;;;;;;3.61;88.97;101782.13;5005067;28;20030;-81
2021/01/26 09:03:31;;;;;;;9.53;1.87;;;;;;;3.57;89.11;101787.75;4987521;28;20401;-79
2021/01/26 09:06:04;;;;;;;11.30;1.70;;;;;;;3.58;89.74;101788.69;4984210;28;20048;-83
2021/01/26 09:08:52;;;;;;;7.70;2.40;;;;;;;3.65;90.24;101785.75;4991280;28;20390;-81
2021/01/26 09:11:40;;;;;;;7.80;2.00;;;;;;;3.70;89.80;101794.56;4993804;28;20440;-82
2021/01/26 09:14:14;;;;;;;13.50;1.93;;;;;;;3.66;89.93;101796.03;4991026;28;20037;-82
2021/01/26 09:16:41;;;;;;;9.30;2.60;;;;;;;3.72;89.83;101798.97;4991137;28;20059;-81
2021/01/26 09:19:17;;;;;;;9.23;2.13;;;;;;;3.74;89.65;101807.56;4990229;28;20539;-82
2021/01/26 09:21:43;;;;;;;8.73;1.50;;;;;;;3.79;89.70;101810.41;4990104;28;20023;-82
2021/01/26 09:24:09;;;;;;;8.00;1.77;;;;;;;3.82;89.26;101812.25;4991713;28;20022;-81
2021/01/26 09:26:34;;;;;;;;;;;;;;;3.89;89.99;101811.88;4991776;28;20034;-81
2021/01/26 09:29:00;;;;;;;11.27;2.43;;;;;;;3.96;89.75;101817.50;4988745;28;19914;-82
2021/01/26 09:31:28;;;;;;;11.17;2.00;;;;;;;3.97;88.85;101820.91;4989659;28;20031;-82
2021/01/26 09:34:06;;;;;;;5.00;1.47;;;;;;;3.73;86.82;101833.75;4987828;28;20308;-80
2021/01/26 09:36:34;;;;;;;4.30;0.30;;;;;;;3.56;86.66;101829.19;4989811;28;20451;-79
2021/01/26 09:39:10;;;;;;;3.13;0.60;;;;;;;3.46;87.12;101844.59;4988292;28;20023;-81
2021/01/26 09:41:37;;;;;;;3.35;0.80;;;;;;;3.44;88.44;101841.94;4994118;28;20027;-81
2021/01/26 09:44:06;;;;;;;4.00;0.53;;;;;;;3.38;88.19;101841.53;4984655;28;20046;-82
2021/01/26 09:46:39;;;;;;;6.47;0.70;;;;;;;3.40;88.61;101854.34;4994316;28;20497;-81
2021/01/26 09:49:14;;;;;;;4.20;0.60;;;;;;;3.39;88.62;101852.56;4986739;28;20022;-81
2021/01/26 09:51:43;;;;;;;2.57;0.50;;;;;;;3.39;88.50;101847.50;4990234;28;20053;-81
2021/01/26 09:54:19;;;;;;;4.60;0.57;;;;;;;3.48;88.60;101849.78;4989636;28;20028;-82
2021/01/26 09:56:46;;;;;;;2.22;0.50;;;;;;;3.57;88.26;101850.38;4989308;28;20038;-81
2021/01/26 09:59:14;;;;;;;5.13;0.57;;;;;;;3.61;87.81;101853.28;4988152;28;20030;-81
2021/01/26 10:01:42;;;;;;;5.10;0.70;;;;;;;3.63;88.28;101854.25;4985600;28;20018;-80
2021/01/26 10:04:09;;;;;;;2.77;0.60;;;;;;;3.58;87.87;101857.28;4984825;28;20022;-81
2021/01/26 10:06:35;;;;;;;2.93;0.57;;;;;;;3.63;88.18;101854.25;4989746;28;20088;-82
2021/01/26 10:09:12;;;;;;;;;;;;;;;3.63;88.32;101856.78;4989469;28;20073;-83
2021/01/26 10:11:39;;;;;;;6.50;1.02;;;;;;;3.72;88.66;101859.06;4997955;28;19917;-80
2021/01/26 10:14:20;;;;;;;2.83;0.70;;;;;;;3.71;88.88;101864.94;4988399;28;20041;-80
2021/01/26 10:16:56;;;;;;;4.07;0.60;;;;;;;3.83;88.24;101867.41;5020279;23;20054;-79
2021/01/26 10:19:25;;;;;;;3.67;0.70;;;;;;;3.99;88.51;101865.13;5010477;28;20034;-80
2021/01/26 10:21:52;;;;;;;6.23;0.73;;;;;;;4.06;87.97;101857.09;5023074;28;20283;-79
2021/01/26 10:24:31;;;;;;;3.53;0.83;;;;;;;4.07;88.00;101863.94;5011774;28;20032;-77
2021/01/26 10:27:11;;;;;;;3.13;0.83;;;;;;;4.11;87.53;101863.38;5011871;28;20108;-78
2021/01/26 10:29:41;;;;;;;10.27;0.70;;;;;;;4.37;88.37;101860.88;5011708;28;20053;-79
2021/01/26 10:32:10;;;;;;;3.00;0.70;;;;;;;4.73;87.31;101863.13;5013014;28;20431;-79
2021/01/26 10:34:41;;;;;;;2.93;0.73;;;;;;;4.89;86.17;101859.13;5011467;28;20476;-80
2021/01/26 10:37:10;;;;;;;4.03;0.70;;;;;;;5.59;84.90;101857.44;5012960;28;20033;-78
2021/01/26 10:39:35;;;;;;;5.87;0.70;;;;;;;6.33;82.33;101857.53;5011342;28;20037;-79
2021/01/26 10:42:20;;;;;;;5.63;0.80;;;;;;;6.63;79.98;101848.19;5011329;28;20013;-78
2021/01/26 10:44:48;;;;;;;2.27;0.57;;;;;;;6.70;77.45;101855.38;5010820;28;20399;-79
2021/01/26 10:47:26;;;;;;;4.80;0.90;;;;;;;6.43;77.94;101854.72;5012024;28;20026;-79
2021/01/26 10:49:55;;;;;;;6.43;1.00;;;;;;;7.44;81.01;101861.09;5011414;28;20026;-79
2021/01/26 10:52:41;;;;;;;7.77;0.90;;;;;;;8.72;75.39;101855.63;5011338;28;20116;-79
2021/01/26 10:55:09;;;;;;;3.27;0.60;;;;;;;9.71;72.50;101848.13;5012462;28;20423;-79
2021/01/26 10:57:34;;;;;;;3.33;0.80;;;;;;;10.56;65.57;101838.88;5010641;28;20034;-80
2021/01/26 11:00:00;;;;;;;5.43;0.80;;;;;;;11.24;67.77;101843.22;5011156;28;20447;-79
2021/01/26 11:02:25;;;;;;;2.33;0.57;;;;;;;11.75;63.40;101836.50;5012464;28;20272;-80
2021/01/26 11:04:50;;;;;;;4.57;0.88;;;;;;;11.75;61.19;101836.50;5010761;28;20017;-79
2021/01/26 11:07:16;;;;;;;3.47;0.60;;;;;;;12.06;63.28;101833.31;5012461;28;20026;-79
2021/01/26 11:09:41;;;;;;;5.88;0.90;;;;;;;12.27;58.44;101830.53;5010759;28;20026;-79
2021/01/26 11:12:06;;;;;;;5.25;0.70;;;;;;;12.56;58.69;101828.00;5010536;28;20145;-79
2021/01/26 11:14:32;;;;;;;9.85;1.52;;;;;;;12.97;59.69;101827.56;5012783;28;20507;-80
2021/01/26 11:16:57;;;;;;;7.47;1.13;;;;;;;12.86;56.78;101823.81;5011503;28;20026;-81
2021/01/26 11:19:23;;;;;;;9.48;1.10;;;;;;;13.06;60.17;101827.84;5010972;28;20042;-79
2021/01/26 11:21:49;;;;;;;6.15;1.58;;;;;;;13.46;58.26;101818.69;5012317;28;20512;-80
2021/01/26 11:24:14;;;;;;;;;;;;;;;12.91;54.80;101821.34;5011510;28;20176;-79
2021/01/26 11:26:39;;;;;;;15.38;1.73;;;;;;;11.56;59.54;101834.09;5011986;28;19913;-80
2021/01/26 11:29:04;;;;;;;8.00;1.37;;;;;;;11.00;62.06;101834.56;5010977;28;20036;-80
2021/01/26 11:31:30;;;;;;;9.23;1.48;;;;;;;10.07;63.38;101833.41;5011129;28;20295;-79
2021/01/26 11:33:55;;;;;;;7.22;1.70;;;;;;;9.35;67.25;101833.75;5012233;28;20026;-80
2021/01/26 11:36:20;;;;;;;13.20;2.03;;;;;;;9.27;70.94;101835.13;5012142;28;20513;-78
2021/01/26 11:38:45;;;;;;;8.65;1.70;;;;;;;10.11;67.75;101822.47;5011104;28;20026;-80
2021/01/26 11:41:11;;;;;;;9.93;2.30;;;;;;;10.99;63.55;101827.69;5012894;28;20479;-80
2021/01/26 11:43:37;;;;;;;12.18;2.35;;;;;;;11.59;60.68;101818.75;5012623;28;20033;-79
2021/01/26 11:46:04;;;;;;;6.50;1.40;;;;;;;11.62;59.75;101823.13;5011320;28;20083;-80
2021/01/26 11:48:30;;;;;;;11.85;2.28;;;;;;;10.33;62.35;101835.38;5011084;28;20021;-79
2021/01/26 11:50:56;;;;;;;6.55;1.55;;;;;;;9.64;65.75;101836.72;5011379;28;20530;-81
2021/01/26 11:53:21;;;;;;;13.30;2.17;;;;;;;9.25;67.99;101841.88;5010771;28;20400;-80
2021/01/26 11:55:48;;;;;;;6.45;2.05;;;;;;;8.73;68.55;101839.47;5012622;28;20034;-76